createdAt,value
2022-09-03T00:00:04.898Z,19.80
2022-09-03T00:02:43.922Z,19.93
2022-09-03T00:05:23.455Z,19.87
2022-09-03T00:08:05.129Z,19.84
2022-09-03T00:10:45.132Z,19.77
2022-09-03T00:13:21.360Z,19.82
2022-09-03T00:15:53.584Z,19.78
2022-09-03T00:18:27.098Z,19.80
2022-09-03T00:21:08.614Z,19.79
2022-09-03T00:23:43.397Z,19.75
2022-09-03T00:26:26.795Z,19.64
2022-09-03T00:29:04.875Z,19.67
2022-09-03T00:31:39.097Z,19.67
2022-09-03T00:34:16.629Z,19.59
2022-09-03T00:36:47.939Z,19.63
2022-09-03T00:39:20.329Z,19.70
2022-09-03T00:42:07.025Z,19.69
2022-09-03T00:45:10.566Z,19.66
2022-09-03T00:47:50.704Z,19.62
2022-09-03T00:50:30.916Z,19.60
2022-09-03T00:53:13.495Z,19.55
2022-09-03T00:55:58.893Z,19.52
2022-09-03T00:58:46.426Z,19.49
2022-09-03T01:01:24.243Z,19.50
2022-09-03T01:04:06.635Z,19.52
2022-09-03T01:06:47.198Z,19.58
2022-09-03T01:09:36.468Z,19.58
2022-09-03T01:12:18.163Z,19.59
2022-09-03T01:15:04.447Z,19.54
2022-09-03T01:17:57.318Z,19.61
2022-09-03T01:20:44.216Z,19.61
2022-09-03T01:24:07.505Z,19.60
2022-09-03T01:26:56.600Z,19.54
2022-09-03T01:29:35.791Z,19.52
2022-09-03T01:32:15.822Z,19.56
2022-09-03T01:34:59.159Z,19.59
2022-09-03T01:37:43.806Z,19.53
2022-09-03T01:40:25.075Z,19.49
2022-09-03T01:43:19.006Z,19.45
2022-09-03T01:46:00.544Z,19.39
2022-09-03T01:48:42.202Z,19.40
2022-09-03T01:51:22.945Z,19.39
2022-09-03T01:54:28.503Z,19.29
2022-09-03T01:57:35.529Z,19.28
2022-09-03T02:00:12.673Z,19.23
2022-09-03T02:02:47.991Z,19.29
2022-09-03T02:05:24.301Z,19.25
2022-09-03T02:08:00.459Z,19.17
2022-09-03T02:10:35.193Z,19.14
2022-09-03T02:13:09.267Z,19.09
2022-09-03T02:15:44.766Z,19.03
2022-09-03T02:18:21.574Z,19.04
2022-09-03T02:20:51.975Z,18.97
2022-09-03T02:23:24.696Z,18.93
2022-09-03T02:26:00.112Z,18.88
2022-09-03T02:28:31.616Z,18.80
2022-09-03T02:31:01.541Z,18.69
2022-09-03T02:33:33.667Z,18.67
2022-09-03T02:36:05.263Z,18.71
2022-09-03T02:38:34.911Z,18.62
2022-09-03T02:41:04.345Z,18.70
2022-09-03T02:43:40.965Z,18.68
2022-09-03T02:46:16.762Z,18.67
2022-09-03T02:48:47.456Z,18.57
2022-09-03T02:51:16.880Z,18.67
2022-09-03T02:53:47.290Z,18.75
2022-09-03T02:56:16.510Z,18.78
2022-09-03T02:58:45.708Z,18.77
2022-09-03T03:01:23.625Z,18.73
2022-09-03T03:03:55.524Z,18.78
2022-09-03T03:06:25.000Z,18.85
2022-09-03T03:08:56.074Z,18.83
2022-09-03T03:11:26.471Z,18.86
2022-09-03T03:13:55.671Z,18.75
2022-09-03T03:16:24.987Z,18.81
2022-09-03T03:18:57.592Z,18.81
2022-09-03T03:21:26.714Z,18.72
2022-09-03T03:23:56.015Z,18.68
2022-09-03T03:26:25.383Z,18.60
2022-09-03T03:28:59.792Z,18.50
2022-09-03T03:31:29.556Z,18.54
2022-09-03T03:34:02.938Z,18.45
2022-09-03T03:36:35.159Z,18.33
2022-09-03T03:39:05.112Z,18.31
2022-09-03T03:41:36.800Z,18.36
2022-09-03T03:44:08.248Z,18.37
2022-09-03T03:46:40.060Z,18.39
2022-09-03T03:49:11.245Z,18.16
2022-09-03T03:51:40.943Z,18.25
2022-09-03T03:54:10.049Z,18.34
2022-09-03T03:56:40.661Z,18.21
2022-09-03T03:59:10.050Z,17.99
2022-09-03T04:01:39.226Z,18.30
2022-09-03T04:04:09.869Z,18.19
2022-09-03T04:06:39.382Z,18.23
2022-09-03T04:09:08.737Z,18.34
2022-09-03T04:11:37.897Z,18.19
2022-09-03T04:14:07.145Z,18.40
2022-09-03T04:16:36.544Z,18.40
2022-09-03T04:19:05.739Z,18.40
2022-09-03T04:21:36.852Z,18.37
2022-09-03T04:24:07.278Z,18.40
2022-09-03T04:26:37.481Z,18.32
2022-09-03T04:29:10.049Z,18.42
2022-09-03T04:32:00.364Z,18.26
2022-09-03T04:34:29.979Z,18.24
2022-09-03T04:37:00.603Z,18.14
2022-09-03T04:39:29.901Z,18.11
2022-09-03T04:42:00.154Z,17.94
2022-09-03T04:44:29.423Z,17.88
2022-09-03T04:46:58.787Z,17.78
2022-09-03T04:49:28.161Z,17.93
2022-09-03T04:51:57.381Z,17.92
2022-09-03T04:54:29.777Z,17.85
2022-09-03T04:56:59.008Z,17.77
2022-09-03T04:59:28.177Z,17.77
2022-09-03T05:01:57.818Z,17.77
2022-09-03T05:04:27.235Z,17.69
2022-09-03T05:06:56.665Z,17.67
2022-09-03T05:09:27.303Z,17.55
2022-09-03T05:11:56.573Z,17.66
2022-09-03T05:14:25.766Z,17.57
2022-09-03T05:16:55.005Z,17.49
2022-09-03T05:19:24.194Z,17.47
2022-09-03T05:21:53.366Z,17.45
2022-09-03T05:24:22.577Z,17.49
2022-09-03T05:26:53.074Z,17.55
2022-09-03T05:29:22.276Z,17.57
2022-09-03T05:31:51.465Z,17.57
2022-09-03T05:34:20.677Z,17.60
2022-09-03T05:36:49.996Z,17.57
2022-09-03T05:39:19.255Z,17.52
2022-09-03T05:41:50.539Z,17.49
2022-09-03T05:44:23.447Z,17.42
2022-09-03T05:46:53.591Z,17.32
2022-09-03T05:49:23.196Z,17.22
2022-09-03T05:51:52.329Z,17.17
2022-09-03T05:54:21.637Z,17.02
2022-09-03T05:56:50.994Z,17.05
2022-09-03T05:59:21.548Z,17.04
2022-09-03T06:01:53.018Z,17.03
2022-09-03T06:04:26.016Z,17.02
2022-09-03T06:06:55.278Z,16.98
2022-09-03T06:09:24.396Z,16.95
2022-09-03T06:11:54.682Z,16.92
2022-09-03T06:14:28.047Z,16.90
2022-09-03T06:16:57.354Z,16.89
2022-09-03T06:19:26.510Z,16.81
2022-09-03T06:21:55.692Z,16.69
2022-09-03T06:24:28.416Z,16.78
2022-09-03T06:26:58.268Z,16.76
2022-09-03T06:29:31.239Z,16.81
2022-09-03T06:32:02.311Z,16.79
2022-09-03T06:34:32.395Z,16.90
2022-09-03T06:37:04.425Z,16.88
2022-09-03T06:39:36.417Z,16.91
2022-09-03T06:42:06.402Z,16.86
2022-09-03T06:44:40.484Z,16.82
2022-09-03T06:47:09.879Z,16.80
2022-09-03T06:49:42.347Z,16.72
2022-09-03T06:52:11.630Z,16.64
2022-09-03T06:54:45.211Z,16.68
2022-09-03T06:57:16.700Z,16.63
2022-09-03T06:59:47.812Z,16.63
2022-09-03T07:02:17.332Z,16.69
2022-09-03T07:04:46.678Z,16.71
2022-09-03T07:07:17.636Z,16.69
2022-09-03T07:09:48.445Z,16.60
2022-09-03T07:12:19.419Z,16.69
2022-09-03T07:14:51.095Z,16.70
2022-09-03T07:17:20.560Z,16.69
2022-09-03T07:23:16.515Z,16.66
2022-09-03T07:25:45.798Z,16.67
2022-09-03T07:28:15.238Z,16.64
2022-09-03T07:30:47.490Z,16.71
2022-09-03T07:33:16.698Z,16.76
2022-09-03T07:35:46.025Z,16.86
2022-09-03T07:38:19.945Z,16.81
2022-09-03T07:40:49.366Z,16.93
2022-09-03T07:43:18.737Z,16.96
2022-09-03T07:45:55.745Z,16.78
2022-09-03T07:48:25.612Z,16.92
2022-09-03T07:51:01.515Z,16.89
2022-09-03T07:53:31.361Z,16.89
2022-09-03T07:56:04.958Z,16.88
2022-09-03T07:58:35.994Z,16.75
2022-09-03T08:01:11.219Z,16.80
2022-09-03T08:03:45.588Z,16.78
2022-09-03T08:06:16.805Z,16.79
2022-09-03T08:08:46.458Z,16.78
2022-09-03T08:11:19.463Z,16.72
2022-09-03T08:13:54.942Z,16.68
2022-09-03T08:16:25.672Z,16.67
2022-09-03T08:18:56.580Z,16.77
2022-09-03T08:21:26.701Z,16.78
2022-09-03T08:24:02.647Z,16.86
2022-09-03T08:26:34.060Z,16.76
2022-09-03T08:29:03.739Z,16.85
2022-09-03T08:31:35.257Z,16.76
2022-09-03T08:34:07.802Z,16.86
2022-09-03T08:36:41.471Z,16.86
2022-09-03T08:39:12.759Z,16.80
2022-09-03T08:42:14.947Z,16.82
2022-09-03T08:44:48.773Z,16.73
2022-09-03T08:47:25.838Z,16.66
2022-09-03T08:49:59.682Z,16.59
2022-09-03T08:52:36.672Z,16.53
2022-09-03T08:55:29.911Z,16.54
2022-09-03T08:58:07.959Z,16.50
2022-09-03T09:00:50.767Z,16.51
2022-09-03T09:03:44.311Z,16.48
2022-09-03T09:06:28.104Z,16.50
2022-09-03T09:09:13.882Z,16.45
2022-09-03T09:12:03.420Z,16.52
2022-09-03T09:14:43.936Z,16.48
2022-09-03T09:17:38.063Z,16.57
2022-09-03T09:20:20.278Z,16.57
2022-09-03T09:22:53.564Z,16.67
2022-09-03T09:25:26.438Z,16.64
2022-09-03T09:28:03.321Z,16.70
2022-09-03T09:30:34.608Z,16.71
2022-09-03T09:33:03.870Z,16.72
2022-09-03T09:35:34.861Z,16.72
2022-09-03T09:38:04.215Z,16.73
2022-09-03T09:40:44.606Z,16.70
2022-09-03T09:43:17.419Z,16.60
2022-09-03T09:45:49.112Z,16.68
2022-09-03T09:48:26.519Z,16.63
2022-09-03T09:51:08.683Z,16.56
2022-09-03T09:53:40.487Z,16.56
2022-09-03T09:56:10.488Z,16.56
2022-09-03T09:58:40.142Z,16.57
2022-09-03T10:01:16.431Z,16.49
2022-09-03T10:03:55.450Z,16.56
2022-09-03T10:06:49.440Z,16.44
2022-09-03T10:09:30.891Z,16.47
2022-09-03T10:12:15.519Z,16.58
2022-09-03T10:14:54.547Z,16.50
2022-09-03T10:17:36.756Z,16.55
2022-09-03T10:20:33.984Z,16.57
2022-09-03T10:23:13.083Z,16.58
2022-09-03T10:25:56.174Z,16.56
2022-09-03T10:28:30.377Z,16.50
2022-09-03T10:31:26.618Z,16.57
2022-09-03T10:34:02.959Z,16.57
2022-09-03T10:36:41.124Z,16.48
2022-09-03T10:39:19.944Z,16.43
2022-09-03T10:42:06.848Z,16.38
2022-09-03T10:44:54.677Z,16.42
2022-09-03T10:47:51.736Z,16.39
2022-09-03T10:50:29.144Z,16.31
2022-09-03T10:53:13.325Z,16.29
2022-09-03T10:55:56.628Z,16.32
2022-09-03T10:59:04.157Z,16.41
2022-09-03T11:01:44.217Z,16.47
2022-09-03T11:04:27.315Z,16.46
2022-09-03T11:07:02.257Z,16.51
2022-09-03T11:09:38.368Z,16.54
2022-09-03T11:12:14.312Z,16.58
2022-09-03T11:14:48.187Z,16.54
2022-09-03T11:17:24.348Z,16.56
2022-09-03T11:20:06.749Z,16.61
2022-09-03T11:22:37.590Z,16.58
2022-09-03T11:25:11.344Z,16.55
2022-09-03T11:28:01.946Z,16.58
2022-09-03T11:30:41.537Z,16.56
2022-09-03T11:33:12.873Z,16.54
2022-09-03T11:35:43.998Z,16.54
2022-09-03T11:38:27.528Z,16.46
2022-09-03T11:41:04.752Z,16.52
2022-09-03T11:43:36.003Z,16.53
2022-09-03T11:46:13.158Z,16.50
2022-09-03T11:48:46.242Z,16.57
2022-09-03T11:51:35.802Z,16.53
2022-09-03T11:54:08.696Z,16.59
2022-09-03T11:56:39.315Z,16.58
2022-09-03T11:59:24.347Z,16.51
2022-09-03T12:02:00.570Z,16.58
2022-09-03T12:04:42.181Z,16.58
2022-09-03T12:07:35.975Z,16.63
2022-09-03T12:10:33.621Z,16.71
2022-09-03T12:13:47.755Z,16.73
2022-09-03T12:16:58.222Z,16.83
2022-09-03T12:19:37.586Z,16.86
2022-09-03T12:22:07.234Z,16.90
2022-09-03T12:24:38.452Z,16.92
2022-09-03T12:27:10.823Z,16.95
2022-09-03T12:29:41.239Z,16.97
2022-09-03T12:32:14.831Z,17.02
2022-09-03T12:34:44.048Z,17.04
2022-09-03T12:40:23.353Z,17.13
2022-09-03T12:42:52.711Z,17.13
2022-09-03T12:45:25.237Z,17.16
2022-09-03T12:47:55.925Z,17.18
2022-09-03T12:50:27.163Z,17.20
2022-09-03T12:53:00.961Z,17.18
2022-09-03T12:55:37.471Z,17.15
2022-09-03T12:58:14.026Z,17.06
2022-09-03T13:00:48.332Z,17.01
2022-09-03T13:03:26.141Z,16.93
2022-09-03T13:05:59.625Z,16.92
2022-09-03T13:08:33.287Z,16.82
2022-09-03T13:11:05.728Z,16.91
2022-09-03T13:13:39.487Z,16.83
2022-09-03T13:16:31.090Z,16.85
2022-09-03T13:19:10.439Z,16.85
2022-09-03T13:21:49.783Z,16.82
2022-09-03T13:24:57.365Z,16.86
2022-09-03T13:27:35.815Z,16.84
2022-09-03T13:30:12.308Z,16.81
2022-09-03T13:32:59.479Z,16.88
2022-09-03T13:35:37.842Z,16.87
2022-09-03T13:38:22.490Z,16.93
2022-09-03T13:40:57.634Z,16.96
2022-09-03T13:43:36.447Z,16.93
2022-09-03T13:46:12.271Z,16.93
2022-09-03T13:49:16.559Z,17.00
2022-09-03T13:51:53.847Z,17.01
2022-09-03T13:54:48.285Z,17.05
2022-09-03T13:57:31.670Z,16.96
2022-09-03T14:00:07.595Z,17.11
2022-09-03T14:02:52.609Z,17.19
2022-09-03T14:05:52.351Z,17.22
2022-09-03T14:08:34.550Z,17.21
2022-09-03T14:11:26.173Z,17.18
2022-09-03T14:14:25.394Z,17.24
2022-09-03T14:17:03.352Z,17.22
2022-09-03T14:19:44.720Z,17.26
2022-09-03T14:22:20.682Z,17.26
2022-09-03T14:24:57.095Z,17.28
2022-09-03T14:27:29.316Z,17.30
2022-09-03T14:30:03.202Z,17.32
2022-09-03T14:32:51.070Z,17.26
2022-09-03T14:35:40.929Z,17.25
2022-09-03T14:38:37.431Z,17.27
2022-09-03T14:41:24.046Z,17.34
2022-09-03T14:44:37.997Z,17.31
2022-09-03T14:47:22.340Z,17.37
2022-09-03T14:50:16.296Z,17.33
2022-09-03T14:53:33.146Z,17.38
2022-09-03T14:56:27.602Z,17.34
2022-09-03T14:59:40.465Z,17.38
2022-09-03T15:02:46.332Z,17.24
2022-09-03T15:05:29.440Z,17.35
2022-09-03T15:08:09.558Z,17.36
2022-09-03T15:10:46.593Z,17.34
2022-09-03T15:13:21.276Z,17.24
2022-09-03T15:16:09.492Z,17.33
2022-09-03T15:19:04.856Z,17.29
2022-09-03T15:22:01.512Z,17.25
2022-09-03T15:24:47.929Z,17.24
2022-09-03T15:27:42.177Z,17.22
2022-09-03T15:30:15.849Z,17.25
2022-09-03T15:32:59.023Z,17.25
2022-09-03T15:35:46.805Z,17.25
2022-09-03T15:38:31.477Z,17.31
2022-09-03T15:41:06.959Z,17.26
2022-09-03T15:43:37.203Z,17.25
2022-09-03T15:46:25.084Z,17.25
2022-09-03T15:49:03.020Z,17.22
2022-09-03T15:51:37.037Z,17.17
2022-09-03T15:54:18.749Z,17.10
2022-09-03T15:56:54.579Z,17.10
2022-09-03T15:59:41.325Z,17.07
2022-09-03T16:02:17.302Z,16.93
2022-09-03T16:05:06.234Z,16.92
2022-09-03T16:08:06.635Z,16.76
2022-09-03T16:10:51.122Z,16.77
2022-09-03T16:13:57.725Z,16.84
2022-09-03T16:16:33.161Z,16.79
2022-09-03T16:19:12.516Z,16.86
2022-09-03T16:21:51.277Z,16.89
2022-09-03T16:24:25.223Z,16.88
2022-09-03T16:27:01.649Z,16.93
2022-09-03T16:29:33.051Z,17.01
2022-09-03T16:32:19.511Z,17.11
2022-09-03T16:35:08.927Z,17.14
2022-09-03T16:37:58.724Z,17.18
2022-09-03T16:40:38.670Z,17.21
2022-09-03T16:43:39.489Z,17.22
2022-09-03T16:46:26.392Z,17.17
2022-09-03T16:49:22.240Z,17.14
2022-09-03T16:52:04.991Z,17.14
2022-09-03T16:54:57.265Z,17.15
2022-09-03T16:57:46.048Z,17.11
2022-09-03T17:00:17.714Z,17.16
2022-09-03T17:03:26.299Z,17.20
2022-09-03T17:06:46.817Z,17.23
2022-09-03T17:09:35.771Z,17.27
2022-09-03T17:12:16.343Z,17.27
2022-09-03T17:15:26.415Z,17.26
2022-09-03T17:18:32.724Z,17.23
2022-09-03T17:21:23.094Z,17.25
2022-09-03T17:24:24.746Z,17.27
2022-09-03T17:27:04.337Z,17.28
2022-09-03T17:29:55.402Z,17.34
2022-09-03T17:32:41.928Z,17.47
2022-09-03T17:35:17.229Z,17.43
2022-09-03T17:38:04.718Z,17.52
2022-09-03T17:40:49.064Z,17.57
2022-09-03T17:43:29.184Z,17.60
2022-09-03T17:46:13.874Z,17.70
2022-09-03T17:48:52.710Z,17.72
2022-09-03T17:51:46.513Z,17.78
2022-09-03T17:54:33.242Z,17.76
2022-09-03T17:57:16.483Z,17.71
2022-09-03T17:59:53.312Z,17.71
2022-09-03T18:02:36.953Z,17.68
2022-09-03T18:05:19.718Z,17.70
2022-09-03T18:08:00.193Z,17.71
2022-09-03T18:10:35.834Z,17.64
2022-09-03T18:13:23.663Z,17.62
2022-09-03T18:16:02.188Z,17.58
2022-09-03T18:18:33.782Z,17.51
2022-09-03T18:21:30.853Z,17.54
2022-09-03T18:24:28.032Z,17.45
2022-09-03T18:27:20.631Z,17.41
2022-09-03T18:30:17.822Z,17.39
2022-09-03T18:33:04.360Z,17.36
2022-09-03T18:35:54.802Z,17.36
2022-09-03T18:38:45.908Z,17.38
2022-09-03T18:41:59.806Z,17.38
2022-09-03T18:45:21.029Z,17.34
2022-09-03T18:48:28.326Z,17.28
2022-09-03T18:51:25.039Z,17.28
2022-09-03T18:54:27.769Z,17.27
2022-09-03T18:57:14.756Z,17.18
2022-09-03T19:00:29.099Z,17.21
2022-09-03T19:03:56.958Z,17.18
2022-09-03T19:06:56.599Z,17.06
2022-09-03T19:10:03.510Z,17.01
2022-09-03T19:13:10.786Z,16.99
2022-09-03T19:16:11.339Z,16.92
2022-09-03T19:19:31.019Z,16.94
2022-09-03T19:22:27.052Z,16.78
2022-09-03T19:25:27.210Z,16.86
2022-09-03T19:28:29.839Z,16.82
2022-09-03T19:31:47.433Z,16.80
2022-09-03T19:35:00.376Z,16.76
2022-09-03T19:37:53.766Z,16.73
2022-09-03T19:41:04.263Z,16.66
2022-09-03T19:44:07.567Z,16.64
2022-09-03T19:47:05.726Z,16.60
2022-09-03T19:50:08.740Z,16.61
2022-09-03T19:53:08.131Z,16.51
2022-09-03T19:55:58.040Z,16.55
2022-09-03T19:58:48.993Z,16.51
2022-09-03T20:01:37.819Z,16.48
2022-09-03T20:04:32.000Z,16.45
2022-09-03T20:07:26.929Z,16.41
2022-09-03T20:10:18.836Z,16.42
2022-09-03T20:12:57.680Z,16.37
2022-09-03T20:15:37.927Z,16.33
2022-09-03T20:18:17.240Z,16.31
2022-09-03T20:20:54.102Z,16.31
2022-09-03T20:23:36.679Z,16.29
2022-09-03T20:26:21.351Z,16.31
2022-09-03T20:29:22.380Z,16.29
2022-09-03T20:32:06.028Z,16.24
2022-09-03T20:34:46.813Z,16.19
2022-09-03T20:37:29.990Z,16.16
2022-09-03T20:40:16.776Z,16.15
2022-09-03T20:43:05.727Z,16.12
2022-09-03T20:45:53.709Z,16.07
2022-09-03T20:48:32.787Z,16.08
2022-09-03T20:51:10.245Z,16.04
2022-09-03T20:54:06.367Z,15.99
2022-09-03T20:57:08.392Z,15.92
2022-09-03T20:59:59.557Z,15.86
2022-09-03T21:02:51.042Z,15.88
2022-09-03T21:05:28.278Z,15.86
2022-09-03T21:08:14.725Z,15.89
2022-09-03T21:10:53.865Z,15.90
2022-09-03T21:13:40.405Z,15.82
2022-09-03T21:16:28.856Z,15.88
2022-09-03T21:19:09.892Z,15.92
2022-09-03T21:21:53.781Z,15.96
2022-09-03T21:24:32.753Z,15.93
2022-09-03T21:27:13.094Z,15.98
2022-09-03T21:29:51.341Z,15.96
2022-09-03T21:32:30.889Z,15.92
2022-09-03T21:35:09.814Z,16.01
2022-09-03T21:37:43.139Z,15.99
2022-09-03T21:40:14.448Z,15.99
2022-09-03T21:42:59.899Z,15.95
2022-09-03T21:45:37.227Z,15.83
2022-09-03T21:48:14.056Z,15.92
2022-09-03T21:50:51.223Z,16.00
2022-09-03T21:53:31.810Z,16.02
2022-09-03T21:56:26.553Z,16.11
2022-09-03T21:59:09.352Z,16.08
2022-09-03T22:01:59.372Z,16.11
2022-09-03T22:04:29.201Z,16.05
2022-09-03T22:07:09.844Z,16.06
2022-09-03T22:09:46.890Z,16.10
2022-09-03T22:12:25.444Z,16.10
2022-09-03T22:14:56.755Z,16.12
2022-09-03T22:17:37.699Z,16.08
2022-09-03T22:20:11.863Z,16.12
2022-09-03T22:22:56.692Z,16.12
2022-09-03T22:25:36.083Z,16.10
2022-09-03T22:28:15.393Z,16.07
2022-09-03T22:30:52.179Z,16.14
2022-09-03T22:33:33.785Z,16.17
2022-09-03T22:36:10.265Z,16.19
2022-09-03T22:39:13.817Z,16.19
2022-09-03T22:42:23.901Z,16.16
2022-09-03T22:45:19.491Z,16.15
2022-09-03T22:48:10.521Z,16.12
2022-09-03T22:50:52.993Z,16.19
2022-09-03T22:53:36.767Z,16.23
2022-09-03T22:56:10.285Z,16.27
2022-09-03T22:58:46.586Z,16.26
2022-09-03T23:01:23.861Z,16.25
2022-09-03T23:03:58.626Z,16.30
2022-09-03T23:06:35.378Z,16.32
2022-09-03T23:09:08.884Z,16.31
2022-09-03T23:11:43.931Z,16.36
2022-09-03T23:14:16.951Z,16.32
2022-09-03T23:16:52.751Z,16.42
2022-09-03T23:19:40.862Z,16.41
2022-09-03T23:22:20.926Z,16.40
2022-09-03T23:24:56.704Z,16.45
2022-09-03T23:27:32.695Z,16.43
2022-09-03T23:30:02.871Z,16.48
2022-09-03T23:32:33.736Z,16.46
2022-09-03T23:35:08.497Z,16.48
2022-09-03T23:37:59.340Z,16.56
2022-09-03T23:40:50.433Z,16.60
2022-09-03T23:43:52.371Z,16.60
2022-09-03T23:46:26.990Z,16.62
2022-09-03T23:49:33.954Z,16.52
2022-09-03T23:52:27.016Z,16.60
2022-09-03T23:55:12.090Z,16.59
2022-09-03T23:57:46.846Z,16.58
